createdAt,value
2023-05-04T00:00:01.347Z,6.94
2023-05-04T00:01:01.299Z,6.96
2023-05-04T00:02:01.289Z,6.98
2023-05-04T00:03:01.380Z,6.98
2023-05-04T00:04:01.516Z,6.98
2023-05-04T00:05:01.551Z,6.96
2023-05-04T00:06:01.248Z,6.95
2023-05-04T00:07:01.260Z,6.95
2023-05-04T00:08:01.258Z,6.95
2023-05-04T00:09:01.221Z,6.96
2023-05-04T00:10:01.319Z,6.96
2023-05-04T00:11:01.186Z,6.96
2023-05-04T00:12:01.182Z,6.96
2023-05-04T00:13:01.221Z,6.95
2023-05-04T00:14:01.163Z,6.92
2023-05-04T00:15:01.166Z,6.89
2023-05-04T00:16:01.213Z,6.87
2023-05-04T00:17:01.119Z,6.87
2023-05-04T00:18:01.191Z,6.86
2023-05-04T00:19:01.123Z,6.86
2023-05-04T00:20:01.139Z,6.85
2023-05-04T00:21:01.084Z,6.83
2023-05-04T00:22:01.082Z,6.81
2023-05-04T00:23:01.094Z,6.79
2023-05-04T00:24:01.070Z,6.78
2023-05-04T00:25:01.061Z,6.76
2023-05-04T00:26:01.053Z,6.76
2023-05-04T00:27:01.035Z,6.75
2023-05-04T00:28:01.019Z,6.74
2023-05-04T00:29:01.035Z,6.72
2023-05-04T00:30:00.980Z,6.71
2023-05-04T00:31:00.996Z,6.70
2023-05-04T00:32:01.013Z,6.70
2023-05-04T00:33:01.055Z,6.70
2023-05-04T00:34:00.949Z,6.70
2023-05-04T00:35:00.956Z,6.70
2023-05-04T00:36:00.947Z,6.69
2023-05-04T00:37:00.911Z,6.68
2023-05-04T00:38:00.917Z,6.67
2023-05-04T00:39:00.896Z,6.66
2023-05-04T00:40:00.880Z,6.64
2023-05-04T00:41:00.918Z,6.63
2023-05-04T00:42:00.860Z,6.60
2023-05-04T00:43:00.856Z,6.54
2023-05-04T00:44:00.853Z,6.47
2023-05-04T00:45:00.940Z,6.41
2023-05-04T00:46:00.819Z,6.36
2023-05-04T00:47:00.885Z,6.34
2023-05-04T00:48:00.832Z,6.33
2023-05-04T00:49:00.791Z,6.34
2023-05-04T00:50:00.795Z,6.35
2023-05-04T00:51:00.763Z,6.36
2023-05-04T00:52:00.774Z,6.38
2023-05-04T00:53:00.790Z,6.39
2023-05-04T00:54:00.732Z,6.40
2023-05-04T00:55:00.721Z,6.40
2023-05-04T00:56:00.723Z,6.40
2023-05-04T00:57:00.714Z,6.39
2023-05-04T00:58:00.698Z,6.38
2023-05-04T00:59:00.695Z,6.36
2023-05-04T01:00:00.700Z,6.33
2023-05-04T01:01:00.679Z,6.31
2023-05-04T01:02:00.693Z,6.30
2023-05-04T01:03:00.711Z,6.28
2023-05-04T01:04:00.635Z,6.28
2023-05-04T01:05:00.616Z,6.27
2023-05-04T01:06:00.604Z,6.28
2023-05-04T01:07:00.601Z,6.28
2023-05-04T01:08:00.581Z,6.28
2023-05-04T01:09:00.593Z,6.27
2023-05-04T01:10:00.614Z,6.27
2023-05-04T01:11:00.564Z,6.27
2023-05-04T01:12:00.572Z,6.25
2023-05-04T01:13:00.571Z,6.24
2023-05-04T01:14:00.514Z,6.24
2023-05-04T01:15:00.524Z,6.24
2023-05-04T01:16:00.497Z,6.23
2023-05-04T01:17:00.615Z,6.22
2023-05-04T01:18:00.497Z,6.21
2023-05-04T01:19:00.472Z,6.18
2023-05-04T01:20:00.462Z,6.16
2023-05-04T01:21:00.462Z,6.16
2023-05-04T01:22:00.457Z,6.15
2023-05-04T01:23:00.427Z,6.15
2023-05-04T01:24:00.425Z,6.15
2023-05-04T01:25:00.401Z,6.15
2023-05-04T01:26:00.388Z,6.16
2023-05-04T01:27:00.408Z,6.16
2023-05-04T01:28:00.369Z,6.15
2023-05-04T01:29:00.361Z,6.15
2023-05-04T01:30:00.357Z,6.14
2023-05-04T01:31:00.385Z,6.13
2023-05-04T01:32:00.345Z,6.11
2023-05-04T01:33:00.354Z,6.09
2023-05-04T01:34:00.330Z,6.05
2023-05-04T01:35:00.345Z,6.01
2023-05-04T01:36:00.283Z,5.98
2023-05-04T01:37:00.291Z,5.94
2023-05-04T01:38:00.258Z,5.91
2023-05-04T01:39:00.246Z,5.89
2023-05-04T01:40:00.246Z,5.86
2023-05-04T01:41:00.230Z,5.84
2023-05-04T01:42:00.252Z,5.82
2023-05-04T01:43:00.259Z,5.81
2023-05-04T01:44:00.214Z,5.80
2023-05-04T01:45:00.217Z,5.80
2023-05-04T01:46:00.269Z,5.79
2023-05-04T01:47:00.178Z,5.79
2023-05-04T01:48:00.244Z,5.80
2023-05-04T01:49:00.172Z,5.79
2023-05-04T01:50:00.154Z,5.79
2023-05-04T01:51:00.138Z,5.79
2023-05-04T01:52:00.162Z,5.79
2023-05-04T01:53:00.120Z,5.78
2023-05-04T01:54:00.141Z,5.77
2023-05-04T01:55:00.073Z,5.74
2023-05-04T01:56:00.062Z,5.72
2023-05-04T01:57:00.058Z,5.69
2023-05-04T01:58:00.120Z,5.66
2023-05-04T01:59:00.033Z,5.63
2023-05-04T02:00:00.015Z,5.61
2023-05-04T02:01:00.049Z,5.60
2023-05-04T02:02:00.199Z,5.59
2023-05-04T02:03:00.145Z,5.59
2023-05-04T02:04:00.221Z,5.60
2023-05-04T02:04:59.973Z,5.61
2023-05-04T02:05:59.958Z,5.61
2023-05-04T02:06:59.980Z,5.61
2023-05-04T02:07:59.940Z,5.61
2023-05-04T02:08:59.919Z,5.62
2023-05-04T02:09:59.919Z,5.63
2023-05-04T02:10:59.905Z,5.62
2023-05-04T02:11:59.891Z,5.61
2023-05-04T02:12:59.971Z,5.58
2023-05-04T02:13:59.877Z,5.57
2023-05-04T02:14:59.885Z,5.56
2023-05-04T02:15:59.905Z,5.56
2023-05-04T02:16:59.868Z,5.57
2023-05-04T02:17:59.895Z,5.58
2023-05-04T02:18:59.815Z,5.58
2023-05-04T02:19:59.825Z,5.58
2023-05-04T02:20:59.797Z,5.55
2023-05-04T02:21:59.783Z,5.51
2023-05-04T02:22:59.784Z,5.49
2023-05-04T02:23:59.767Z,5.47
2023-05-04T02:24:59.755Z,5.44
2023-05-04T02:25:59.743Z,5.41
2023-05-04T02:26:59.732Z,5.37
2023-05-04T02:27:59.746Z,5.33
2023-05-04T02:28:59.704Z,5.30
2023-05-04T02:29:59.707Z,5.29
2023-05-04T02:30:59.684Z,5.29
2023-05-04T02:31:59.790Z,5.30
2023-05-04T02:32:59.743Z,5.31
2023-05-04T02:33:59.653Z,5.32
2023-05-04T02:34:59.656Z,5.34
2023-05-04T02:35:59.654Z,5.35
2023-05-04T02:36:59.624Z,5.36
2023-05-04T02:37:59.627Z,5.36
2023-05-04T02:38:59.630Z,5.37
2023-05-04T02:39:59.585Z,5.37
2023-05-04T02:40:59.586Z,5.37
2023-05-04T02:41:59.586Z,5.37
2023-05-04T02:42:59.589Z,5.36
2023-05-04T02:43:59.549Z,5.34
2023-05-04T02:44:59.559Z,5.31
2023-05-04T02:45:59.556Z,5.28
2023-05-04T02:46:59.512Z,5.26
2023-05-04T02:47:59.576Z,5.26
2023-05-04T02:48:59.494Z,5.26
2023-05-04T02:49:59.489Z,5.25
2023-05-04T02:50:59.511Z,5.25
2023-05-04T02:51:59.462Z,5.24
2023-05-04T02:52:59.467Z,5.23
2023-05-04T02:53:59.499Z,5.22
2023-05-04T02:54:59.434Z,5.22
2023-05-04T02:55:59.424Z,5.21
2023-05-04T02:56:59.403Z,5.20
2023-05-04T02:57:59.430Z,5.19
2023-05-04T02:58:59.388Z,5.17
2023-05-04T02:59:59.376Z,5.16
2023-05-04T03:00:59.551Z,5.15
2023-05-04T03:01:59.379Z,5.13
2023-05-04T03:02:59.455Z,5.12
2023-05-04T03:03:59.347Z,5.11
2023-05-04T03:04:59.334Z,5.10
2023-05-04T03:05:59.323Z,5.10
2023-05-04T03:06:59.299Z,5.10
2023-05-04T03:07:59.353Z,5.09
2023-05-04T03:08:59.283Z,5.09
2023-05-04T03:09:59.275Z,5.09
2023-05-04T03:10:59.280Z,5.09
2023-05-04T03:11:59.252Z,5.09
2023-05-04T03:12:59.270Z,5.09
2023-05-04T03:13:59.254Z,5.09
2023-05-04T03:14:59.224Z,5.09
2023-05-04T03:15:59.238Z,5.09
2023-05-04T03:16:59.203Z,5.09
2023-05-04T03:17:59.317Z,5.09
2023-05-04T03:19:00.919Z,5.08
2023-05-04T03:19:59.197Z,5.07
2023-05-04T03:20:59.152Z,5.07
2023-05-04T03:21:59.153Z,5.06
2023-05-04T03:22:59.144Z,5.06
2023-05-04T03:23:59.177Z,5.05
2023-05-04T03:24:59.108Z,5.06
2023-05-04T03:25:59.092Z,5.06
2023-05-04T03:26:59.117Z,5.06
2023-05-04T03:27:59.099Z,5.06
2023-05-04T03:28:59.062Z,5.05
2023-05-04T03:29:59.082Z,5.04
2023-05-04T03:30:59.041Z,5.03
2023-05-04T03:31:59.073Z,5.02
2023-05-04T03:32:59.071Z,5.01
2023-05-04T03:33:59.044Z,5.01
2023-05-04T03:34:59.005Z,5.00
2023-05-04T03:35:59.001Z,5.00
2023-05-04T03:36:59.069Z,4.99
2023-05-04T03:37:58.976Z,4.98
2023-05-04T03:38:58.972Z,4.97
2023-05-04T03:39:59.025Z,4.96
2023-05-04T03:40:58.935Z,4.94
2023-05-04T03:41:58.920Z,4.93
2023-05-04T03:42:58.940Z,4.92
2023-05-04T03:43:58.914Z,4.91
2023-05-04T03:44:58.928Z,4.91
2023-05-04T03:45:58.971Z,4.91
2023-05-04T03:46:58.892Z,4.91
2023-05-04T03:47:58.896Z,4.91
2023-05-04T03:48:58.885Z,4.90
2023-05-04T03:49:58.858Z,4.88
2023-05-04T03:50:58.839Z,4.87
2023-05-04T03:51:58.844Z,4.88
2023-05-04T03:52:58.810Z,4.88
2023-05-04T03:53:58.808Z,4.88
2023-05-04T03:54:58.805Z,4.87
2023-05-04T03:55:58.793Z,4.87
2023-05-04T03:56:58.788Z,4.87
2023-05-04T03:57:58.758Z,4.87
2023-05-04T03:58:58.752Z,4.88
2023-05-04T03:59:58.753Z,4.88
2023-05-04T04:00:58.730Z,4.89
2023-05-04T04:01:58.837Z,4.89
2023-05-04T04:02:58.751Z,4.90
2023-05-04T04:03:58.830Z,4.90
2023-05-04T04:04:58.696Z,4.91
2023-05-04T04:05:58.668Z,4.91
2023-05-04T04:06:58.666Z,4.90
2023-05-04T04:07:58.650Z,4.88
2023-05-04T04:08:58.658Z,4.87
2023-05-04T04:09:58.631Z,4.86
2023-05-04T04:10:58.630Z,4.85
2023-05-04T04:11:58.616Z,4.84
2023-05-04T04:12:58.651Z,4.84
2023-05-04T04:13:58.631Z,4.84
2023-05-04T04:14:58.575Z,4.84
2023-05-04T04:15:58.636Z,4.85
2023-05-04T04:16:58.556Z,4.86
2023-05-04T04:17:58.568Z,4.87
2023-05-04T04:18:58.549Z,4.88
2023-05-04T04:19:58.533Z,4.89
2023-05-04T04:20:58.516Z,4.89
2023-05-04T04:21:58.496Z,4.89
2023-05-04T04:22:58.558Z,4.90
2023-05-04T04:23:58.477Z,4.91
2023-05-04T04:24:58.497Z,4.91
2023-05-04T04:25:58.486Z,4.91
2023-05-04T04:26:58.472Z,4.91
2023-05-04T04:27:58.430Z,4.90
2023-05-04T04:28:58.426Z,4.87
2023-05-04T04:29:58.405Z,4.86
2023-05-04T04:30:58.499Z,4.84
2023-05-04T04:31:58.449Z,4.83
2023-05-04T04:32:58.430Z,4.83
2023-05-04T04:33:58.387Z,4.82
2023-05-04T04:34:58.379Z,4.82
2023-05-04T04:35:58.385Z,4.81
2023-05-04T04:36:58.336Z,4.81
2023-05-04T04:37:58.330Z,4.81
2023-05-04T04:38:58.330Z,4.81
2023-05-04T04:39:58.325Z,4.82
2023-05-04T04:40:58.303Z,4.83
2023-05-04T04:41:58.313Z,4.84
2023-05-04T04:42:58.275Z,4.86
2023-05-04T04:43:58.260Z,4.89
2023-05-04T04:44:58.255Z,4.91
2023-05-04T04:45:58.232Z,4.93
2023-05-04T04:46:58.337Z,4.94
2023-05-04T04:47:58.256Z,4.95
2023-05-04T04:48:58.255Z,4.96
2023-05-04T04:49:58.261Z,4.97
2023-05-04T04:50:58.263Z,4.98
2023-05-04T04:51:58.202Z,4.98
2023-05-04T04:52:58.178Z,4.99
2023-05-04T04:53:58.167Z,4.99
2023-05-04T04:54:58.141Z,5.00
2023-05-04T04:55:58.152Z,5.01
2023-05-04T04:56:58.127Z,5.01
2023-05-04T04:57:58.113Z,5.01
2023-05-04T04:58:58.122Z,5.01
2023-05-04T04:59:58.111Z,5.01
2023-05-04T05:00:58.208Z,5.00
2023-05-04T05:01:58.086Z,4.99
2023-05-04T05:02:58.099Z,4.98
2023-05-04T05:03:58.040Z,4.98
2023-05-04T05:04:58.135Z,4.97
2023-05-04T05:05:58.025Z,4.97
2023-05-04T05:06:58.033Z,4.97
2023-05-04T05:07:58.009Z,4.97
2023-05-04T05:08:58.003Z,4.97
2023-05-04T05:09:57.981Z,4.98
2023-05-04T05:10:58.006Z,4.99
2023-05-04T05:11:57.986Z,5.01
2023-05-04T05:12:58.013Z,5.04
2023-05-04T05:13:57.944Z,5.06
2023-05-04T05:14:57.926Z,5.07
2023-05-04T05:15:57.940Z,5.09
2023-05-04T05:16:57.962Z,5.11
2023-05-04T05:17:57.961Z,5.12
2023-05-04T05:18:57.888Z,5.13
2023-05-04T05:19:57.870Z,5.15
2023-05-04T05:20:57.900Z,5.17
